sensor_id;sensor_type;location;lat;lon;timestamp;pressure;altitude;pressure_sealevel;temperature;humidity
9235;BME280;4652;42.716;23.218;2023-05-07T07:08:05;95023.94;;;32.96;35.63
9235;BME280;4652;42.716;23.218;2023-05-07T07:14:47;95017.88;;;32.78;35.82
9235;BME280;4652;42.716;23.218;2023-05-07T07:21:28;95036.75;;;33.53;36.08
9235;BME280;4652;42.716;23.218;2023-05-07T10:02:32;94957.34;;;23.08;nan
9235;BME280;4652;42.716;23.218;2023-05-07T13:38:34;94759.91;;;24.25;42.10
9235;BME280;4652;42.716;23.218;2023-05-07T13:45:16;94757.41;;;23.80;42.44
9235;BME280;4652;42.716;23.218;2023-05-07T13:51:58;94769.34;;;23.91;41.99
9235;BME280;4652;42.716;23.218;2023-05-07T13:58:41;94767.88;;;24.01;41.75
9235;BME280;4652;42.716;23.218;2023-05-07T14:05:24;94766.38;;;24.07;42.87
9235;BME280;4652;42.716;23.218;2023-05-07T14:12:07;94763.56;;;24.36;41.97
9235;BME280;4652;42.716;23.218;2023-05-07T14:18:50;94750.69;;;24.44;40.48
9235;BME280;4652;42.716;23.218;2023-05-07T14:25:32;94770.03;;;24.51;42.94
9235;BME280;4652;42.716;23.218;2023-05-07T14:32:14;94766.88;;;24.49;41.44
9235;BME280;4652;42.716;23.218;2023-05-07T14:38:57;94751.78;;;24.36;42.43
9235;BME280;4652;42.716;23.218;2023-05-07T14:45:40;94740.63;;;24.22;43.87
9235;BME280;4652;42.716;23.218;2023-05-07T14:52:22;94744.00;;;24.08;43.21
9235;BME280;4652;42.716;23.218;2023-05-07T14:59:05;94741.41;;;24.22;43.80
9235;BME280;4652;42.716;23.218;2023-05-07T15:05:48;94749.06;;;24.03;41.72
9235;BME280;4652;42.716;23.218;2023-05-07T15:12:31;94737.81;;;23.85;42.64
9235;BME280;4652;42.716;23.218;2023-05-07T15:19:15;94734.84;;;24.01;44.69
9235;BME280;4652;42.716;23.218;2023-05-07T15:25:57;94739.28;;;24.09;45.02
9235;BME280;4652;42.716;23.218;2023-05-07T15:32:39;94737.25;;;24.06;44.86
9235;BME280;4652;42.716;23.218;2023-05-07T15:39:22;94716.19;;;23.83;42.89
9235;BME280;4652;42.716;23.218;2023-05-07T15:46:04;94731.34;;;24.04;44.30
9235;BME280;4652;42.716;23.218;2023-05-07T15:52:46;94712.94;;;24.08;44.08
9235;BME280;4652;42.716;23.218;2023-05-07T15:59:29;94710.81;;;23.61;45.35
9235;BME280;4652;42.716;23.218;2023-05-07T16:06:12;94696.94;;;22.94;46.92
9235;BME280;4652;42.716;23.218;2023-05-07T16:12:54;94717.94;;;22.60;47.78
9235;BME280;4652;42.716;23.218;2023-05-07T16:19:37;94715.16;;;22.34;50.64
9235;BME280;4652;42.716;23.218;2023-05-07T16:26:20;94707.34;;;22.36;50.51
9235;BME280;4652;42.716;23.218;2023-05-07T16:33:02;94707.34;;;22.36;49.12
9235;BME280;4652;42.716;23.218;2023-05-07T16:39:45;94727.34;;;22.14;49.87
9235;BME280;4652;42.716;23.218;2023-05-07T16:46:27;94726.38;;;21.64;51.37
9235;BME280;4652;42.716;23.218;2023-05-07T16:53:09;94725.84;;;21.21;51.99
9235;BME280;4652;42.716;23.218;2023-05-07T16:59:54;94749.94;;;20.99;52.83
9235;BME280;4652;42.716;23.218;2023-05-07T17:06:38;94740.44;;;20.78;53.38
9235;BME280;4652;42.716;23.218;2023-05-07T17:13:20;94760.50;;;20.50;54.23
9235;BME280;4652;42.716;23.218;2023-05-07T17:20:04;94771.78;;;20.33;55.33
9235;BME280;4652;42.716;23.218;2023-05-07T17:26:46;94781.44;;;20.15;56.00
9235;BME280;4652;42.716;23.218;2023-05-07T17:33:28;94778.78;;;20.03;56.54
9235;BME280;4652;42.716;23.218;2023-05-07T17:40:12;94789.13;;;19.82;57.23
9235;BME280;4652;42.716;23.218;2023-05-07T17:46:54;94787.72;;;19.60;57.73
9235;BME280;4652;42.716;23.218;2023-05-07T17:53:36;94783.59;;;19.39;58.71
9235;BME280;4652;42.716;23.218;2023-05-07T18:00:20;94793.91;;;19.33;58.56
9235;BME280;4652;42.716;23.218;2023-05-07T18:07:02;94801.31;;;19.20;58.72
9235;BME280;4652;42.716;23.218;2023-05-07T18:13:44;94820.56;;;18.88;62.35
9235;BME280;4652;42.716;23.218;2023-05-07T18:20:27;94825.25;;;18.75;62.64
9235;BME280;4652;42.716;23.218;2023-05-07T18:27:09;94830.09;;;18.57;62.77
9235;BME280;4652;42.716;23.218;2023-05-07T18:33:52;94825.94;;;18.39;63.06
9235;BME280;4652;42.716;23.218;2023-05-07T18:40:36;94852.00;;;18.49;63.29
9235;BME280;4652;42.716;23.218;2023-05-07T18:47:23;94851.84;;;18.33;64.27
9235;BME280;4652;42.716;23.218;2023-05-07T18:54:05;94863.38;;;18.18;65.18
9235;BME280;4652;42.716;23.218;2023-05-07T19:08:07;94877.63;;;17.82;67.72
9235;BME280;4652;42.716;23.218;2023-05-07T19:14:49;94840.91;;;16.88;73.24
9235;BME280;4652;42.716;23.218;2023-05-07T19:21:32;94895.41;;;16.63;74.03
9235;BME280;4652;42.716;23.218;2023-05-07T19:28:15;94886.38;;;16.16;83.36
9235;BME280;4652;42.716;23.218;2023-05-07T19:34:57;94906.88;;;15.70;93.02
9235;BME280;4652;42.716;23.218;2023-05-07T19:41:39;94917.53;;;14.93;100.00
9235;BME280;4652;42.716;23.218;2023-05-07T19:48:25;65089.03;;;20.41;100.00
9235;BME280;4652;42.716;23.218;2023-05-07T19:55:07;65089.03;;;-144.71;100.00
9235;BME280;4652;42.716;23.218;2023-05-07T20:01:49;37279.13;;;14.93;0.00
9235;BME280;4652;42.716;23.218;2023-05-07T20:08:38;100987.88;;;-98.30;100.00
9235;BME280;4652;42.716;23.218;2023-05-07T20:15:20;47801.63;;;-143.42;0.00
9235;BME280;4652;42.716;23.218;2023-05-07T20:22:02;101282.38;;;-144.70;100.00
9235;BME280;4652;42.716;23.218;2023-05-07T20:28:46;120245.75;;;-144.70;0.00
9235;BME280;4652;42.716;23.218;2023-05-07T20:35:28;153794.63;;;-144.24;100.00
9235;BME280;4652;42.716;23.218;2023-05-07T20:42:11;77370.19;;;-143.42;0.00
9235;BME280;4652;42.716;23.218;2023-05-07T20:48:55;26773.31;;;12.85;100.00
9235;BME280;4652;42.716;23.218;2023-05-07T20:55:37;94957.84;;;12.85;100.00
9235;BME280;4652;42.716;23.218;2023-05-07T21:02:20;94944.28;;;12.44;100.00
9235;BME280;4652;42.716;23.218;2023-05-07T21:09:03;94945.44;;;12.24;100.00
9235;BME280;4652;42.716;23.218;2023-05-07T21:15:45;94964.13;;;12.21;100.00
9235;BME280;4652;42.716;23.218;2023-05-07T21:22:27;94963.06;;;12.03;100.00
9235;BME280;4652;42.716;23.218;2023-05-07T21:29:10;94966.81;;;12.21;100.00
9235;BME280;4652;42.716;23.218;2023-05-07T21:35:52;94984.75;;;12.30;100.00
9235;BME280;4652;42.716;23.218;2023-05-07T21:42:34;94969.06;;;12.00;100.00
9235;BME280;4652;42.716;23.218;2023-05-07T21:49:18;94985.94;;;11.73;100.00
9235;BME280;4652;42.716;23.218;2023-05-07T21:56:00;95001.25;;;11.54;100.00
9235;BME280;4652;42.716;23.218;2023-05-07T22:02:42;94993.03;;;11.46;100.00
9235;BME280;4652;42.716;23.218;2023-05-07T22:09:25;94992.63;;;11.34;100.00
9235;BME280;4652;42.716;23.218;2023-05-07T22:16:07;94996.72;;;11.07;100.00
9235;BME280;4652;42.716;23.218;2023-05-07T22:22:50;95008.59;;;11.06;100.00
9235;BME280;4652;42.716;23.218;2023-05-07T22:29:34;95012.13;;;11.02;100.00
9235;BME280;4652;42.716;23.218;2023-05-07T22:36:16;95011.56;;;11.05;100.00
9235;BME280;4652;42.716;23.218;2023-05-07T22:42:58;95011.00;;;10.84;100.00
9235;BME280;4652;42.716;23.218;2023-05-07T22:49:42;95006.75;;;10.78;100.00
9235;BME280;4652;42.716;23.218;2023-05-07T22:56:24;94997.34;;;10.76;100.00
9235;BME280;4652;42.716;23.218;2023-05-07T23:03:06;95005.50;;;10.94;100.00
9235;BME280;4652;42.716;23.218;2023-05-07T23:09:49;95006.59;;;10.93;100.00
9235;BME280;4652;42.716;23.218;2023-05-07T23:16:31;94997.03;;;10.82;100.00
9235;BME280;4652;42.716;23.218;2023-05-07T23:23:13;94998.56;;;10.65;100.00
9235;BME280;4652;42.716;23.218;2023-05-07T23:29:58;94979.31;;;10.47;100.00
9235;BME280;4652;42.716;23.218;2023-05-07T23:36:40;94994.47;;;10.38;100.00
9235;BME280;4652;42.716;23.218;2023-05-07T23:43:22;94976.50;;;10.34;100.00
9235;BME280;4652;42.716;23.218;2023-05-07T23:50:07;94977.22;;;10.16;100.00
9235;BME280;4652;42.716;23.218;2023-05-07T23:56:49;94976.91;;;10.17;100.00
